sensor_id;sensor_type;location;lat;lon;timestamp;P1;durP1;ratioP1;P2;durP2;ratioP2
23290;SDS011;11814;44.686;10.842;2022-11-20T00:02:10;97.38;;;40.42;;
23290;SDS011;11814;44.686;10.842;2022-11-20T00:04:36;89.90;;;39.38;;
23290;SDS011;11814;44.686;10.842;2022-11-20T00:07:02;87.50;;;40.00;;
23290;SDS011;11814;44.686;10.842;2022-11-20T00:09:28;79.95;;;39.55;;
23290;SDS011;11814;44.686;10.842;2022-11-20T00:11:53;87.30;;;39.90;;
23290;SDS011;11814;44.686;10.842;2022-11-20T00:14:19;86.55;;;37.97;;
23290;SDS011;11814;44.686;10.842;2022-11-20T00:16:45;84.70;;;38.85;;
23290;SDS011;11814;44.686;10.842;2022-11-20T00:19:10;78.90;;;36.97;;
23290;SDS011;11814;44.686;10.842;2022-11-20T00:21:36;77.43;;;36.22;;
23290;SDS011;11814;44.686;10.842;2022-11-20T00:24:02;87.47;;;39.85;;
23290;SDS011;11814;44.686;10.842;2022-11-20T00:26:28;91.05;;;38.78;;
23290;SDS011;11814;44.686;10.842;2022-11-20T00:28:57;87.97;;;38.75;;
23290;SDS011;11814;44.686;10.842;2022-11-20T00:31:24;84.35;;;37.25;;
23290;SDS011;11814;44.686;10.842;2022-11-20T00:33:50;82.90;;;36.08;;
23290;SDS011;11814;44.686;10.842;2022-11-20T00:36:20;87.05;;;38.35;;
23290;SDS011;11814;44.686;10.842;2022-11-20T00:38:50;81.82;;;38.35;;
23290;SDS011;11814;44.686;10.842;2022-11-20T00:41:17;79.40;;;37.60;;
23290;SDS011;11814;44.686;10.842;2022-11-20T00:43:43;82.50;;;37.47;;
23290;SDS011;11814;44.686;10.842;2022-11-20T00:46:09;79.75;;;36.20;;
23290;SDS011;11814;44.686;10.842;2022-11-20T00:48:40;84.43;;;36.95;;
23290;SDS011;11814;44.686;10.842;2022-11-20T00:51:06;69.15;;;33.55;;
23290;SDS011;11814;44.686;10.842;2022-11-20T00:53:32;81.63;;;37.00;;
23290;SDS011;11814;44.686;10.842;2022-11-20T00:58:24;81.60;;;39.40;;
23290;SDS011;11814;44.686;10.842;2022-11-20T01:00:59;82.28;;;37.95;;
23290;SDS011;11814;44.686;10.842;2022-11-20T01:03:26;85.45;;;38.17;;
23290;SDS011;11814;44.686;10.842;2022-11-20T01:05:51;83.30;;;37.58;;
23290;SDS011;11814;44.686;10.842;2022-11-20T01:08:17;73.00;;;36.80;;
23290;SDS011;11814;44.686;10.842;2022-11-20T01:10:43;84.57;;;38.75;;
23290;SDS011;11814;44.686;10.842;2022-11-20T01:13:08;78.00;;;36.72;;
23290;SDS011;11814;44.686;10.842;2022-11-20T01:15:52;88.80;;;39.13;;
23290;SDS011;11814;44.686;10.842;2022-11-20T01:18:18;88.43;;;41.00;;
23290;SDS011;11814;44.686;10.842;2022-11-20T01:20:44;84.53;;;38.55;;
23290;SDS011;11814;44.686;10.842;2022-11-20T01:23:09;75.97;;;36.70;;
23290;SDS011;11814;44.686;10.842;2022-11-20T01:25:35;94.78;;;41.42;;
23290;SDS011;11814;44.686;10.842;2022-11-20T01:28:01;94.13;;;42.35;;
23290;SDS011;11814;44.686;10.842;2022-11-20T01:30:26;94.25;;;41.95;;
23290;SDS011;11814;44.686;10.842;2022-11-20T01:32:54;86.20;;;40.35;;
23290;SDS011;11814;44.686;10.842;2022-11-20T01:35:20;91.97;;;40.70;;
23290;SDS011;11814;44.686;10.842;2022-11-20T01:37:46;87.47;;;39.72;;
23290;SDS011;11814;44.686;10.842;2022-11-20T01:40:12;90.55;;;40.78;;
23290;SDS011;11814;44.686;10.842;2022-11-20T01:42:37;83.75;;;39.22;;
23290;SDS011;11814;44.686;10.842;2022-11-20T01:48:17;80.13;;;37.47;;
23290;SDS011;11814;44.686;10.842;2022-11-20T01:50:45;72.88;;;36.85;;
23290;SDS011;11814;44.686;10.842;2022-11-20T01:53:12;78.35;;;37.17;;
23290;SDS011;11814;44.686;10.842;2022-11-20T01:55:47;94.72;;;39.85;;
23290;SDS011;11814;44.686;10.842;2022-11-20T01:58:17;89.22;;;40.38;;
23290;SDS011;11814;44.686;10.842;2022-11-20T02:00:47;91.10;;;40.22;;
23290;SDS011;11814;44.686;10.842;2022-11-20T02:03:15;84.63;;;38.10;;
23290;SDS011;11814;44.686;10.842;2022-11-20T02:05:49;92.10;;;40.35;;
23290;SDS011;11814;44.686;10.842;2022-11-20T02:08:32;87.05;;;40.70;;
23290;SDS011;11814;44.686;10.842;2022-11-20T02:10:58;96.78;;;42.40;;
23290;SDS011;11814;44.686;10.842;2022-11-20T02:13:24;91.97;;;40.63;;
23290;SDS011;11814;44.686;10.842;2022-11-20T02:16:16;93.38;;;41.65;;
23290;SDS011;11814;44.686;10.842;2022-11-20T02:18:50;86.50;;;40.92;;
23290;SDS011;11814;44.686;10.842;2022-11-20T02:26:33;97.07;;;42.53;;
23290;SDS011;11814;44.686;10.842;2022-11-20T02:29:06;91.28;;;41.00;;
23290;SDS011;11814;44.686;10.842;2022-11-20T02:31:36;98.05;;;42.42;;
23290;SDS011;11814;44.686;10.842;2022-11-20T02:34:04;102.95;;;43.97;;
23290;SDS011;11814;44.686;10.842;2022-11-20T02:36:30;99.05;;;44.72;;
23290;SDS011;11814;44.686;10.842;2022-11-20T02:39:00;92.43;;;42.90;;
23290;SDS011;11814;44.686;10.842;2022-11-20T02:41:36;92.03;;;43.40;;
23290;SDS011;11814;44.686;10.842;2022-11-20T02:44:03;85.28;;;40.60;;
23290;SDS011;11814;44.686;10.842;2022-11-20T02:46:29;92.53;;;40.30;;
23290;SDS011;11814;44.686;10.842;2022-11-20T02:48:56;84.05;;;39.95;;
23290;SDS011;11814;44.686;10.842;2022-11-20T02:51:21;77.97;;;38.80;;
23290;SDS011;11814;44.686;10.842;2022-11-20T02:53:48;93.00;;;41.08;;
23290;SDS011;11814;44.686;10.842;2022-11-20T02:56:13;98.22;;;41.55;;
23290;SDS011;11814;44.686;10.842;2022-11-20T02:58:40;85.53;;;37.78;;
23290;SDS011;11814;44.686;10.842;2022-11-20T03:01:06;90.22;;;40.60;;
23290;SDS011;11814;44.686;10.842;2022-11-20T03:03:31;90.82;;;41.75;;
23290;SDS011;11814;44.686;10.842;2022-11-20T03:06:00;87.28;;;40.85;;
23290;SDS011;11814;44.686;10.842;2022-11-20T03:08:26;92.75;;;42.25;;
23290;SDS011;11814;44.686;10.842;2022-11-20T03:10:52;86.47;;;40.65;;
23290;SDS011;11814;44.686;10.842;2022-11-20T03:13:17;93.00;;;43.10;;
23290;SDS011;11814;44.686;10.842;2022-11-20T03:15:43;99.40;;;42.78;;
23290;SDS011;11814;44.686;10.842;2022-11-20T03:18:09;92.90;;;41.90;;
23290;SDS011;11814;44.686;10.842;2022-11-20T03:20:34;95.43;;;42.85;;
23290;SDS011;11814;44.686;10.842;2022-11-20T03:23:00;80.05;;;38.88;;
23290;SDS011;11814;44.686;10.842;2022-11-20T03:25:27;84.78;;;39.90;;
23290;SDS011;11814;44.686;10.842;2022-11-20T03:27:53;84.03;;;38.97;;
23290;SDS011;11814;44.686;10.842;2022-11-20T03:30:19;81.95;;;40.50;;
23290;SDS011;11814;44.686;10.842;2022-11-20T03:32:45;86.28;;;39.15;;
23290;SDS011;11814;44.686;10.842;2022-11-20T03:35:11;85.70;;;40.28;;
23290;SDS011;11814;44.686;10.842;2022-11-20T03:37:37;86.07;;;40.08;;
23290;SDS011;11814;44.686;10.842;2022-11-20T03:40:03;83.03;;;39.05;;
23290;SDS011;11814;44.686;10.842;2022-11-20T03:42:29;85.60;;;40.20;;
23290;SDS011;11814;44.686;10.842;2022-11-20T03:45:13;82.68;;;40.42;;
23290;SDS011;11814;44.686;10.842;2022-11-20T03:47:40;52.22;;;29.58;;
23290;SDS011;11814;44.686;10.842;2022-11-20T03:50:07;57.63;;;31.02;;
23290;SDS011;11814;44.686;10.842;2022-11-20T03:52:33;56.42;;;29.42;;
23290;SDS011;11814;44.686;10.842;2022-11-20T03:54:59;51.05;;;28.15;;
23290;SDS011;11814;44.686;10.842;2022-11-20T03:57:25;51.10;;;27.85;;
23290;SDS011;11814;44.686;10.842;2022-11-20T03:59:50;45.90;;;25.38;;
23290;SDS011;11814;44.686;10.842;2022-11-20T04:02:16;49.38;;;27.63;;
23290;SDS011;11814;44.686;10.842;2022-11-20T04:04:42;50.10;;;28.02;;
23290;SDS011;11814;44.686;10.842;2022-11-20T04:07:07;70.88;;;35.35;;
23290;SDS011;11814;44.686;10.842;2022-11-20T04:09:33;51.50;;;27.65;;
23290;SDS011;11814;44.686;10.842;2022-11-20T04:11:59;62.25;;;32.40;;
23290;SDS011;11814;44.686;10.842;2022-11-20T04:14:24;67.78;;;34.10;;
23290;SDS011;11814;44.686;10.842;2022-11-20T04:16:50;74.55;;;36.75;;
23290;SDS011;11814;44.686;10.842;2022-11-20T04:19:16;70.30;;;33.65;;
23290;SDS011;11814;44.686;10.842;2022-11-20T04:21:42;68.00;;;33.97;;
23290;SDS011;11814;44.686;10.842;2022-11-20T04:24:09;61.60;;;32.15;;
23290;SDS011;11814;44.686;10.842;2022-11-20T04:26:38;74.15;;;35.40;;
23290;SDS011;11814;44.686;10.842;2022-11-20T04:29:04;72.75;;;37.33;;
23290;SDS011;11814;44.686;10.842;2022-11-20T04:31:30;77.40;;;37.67;;
23290;SDS011;11814;44.686;10.842;2022-11-20T04:34:01;76.53;;;37.38;;
23290;SDS011;11814;44.686;10.842;2022-11-20T04:36:29;86.25;;;38.97;;
23290;SDS011;11814;44.686;10.842;2022-11-20T04:38:59;82.03;;;37.90;;
23290;SDS011;11814;44.686;10.842;2022-11-20T04:41:29;71.40;;;36.83;;
23290;SDS011;11814;44.686;10.842;2022-11-20T04:43:57;75.82;;;37.85;;
23290;SDS011;11814;44.686;10.842;2022-11-20T04:46:27;68.13;;;33.83;;
23290;SDS011;11814;44.686;10.842;2022-11-20T04:48:53;70.00;;;34.28;;
23290;SDS011;11814;44.686;10.842;2022-11-20T04:51:19;76.70;;;36.92;;
23290;SDS011;11814;44.686;10.842;2022-11-20T04:53:44;65.80;;;34.28;;
23290;SDS011;11814;44.686;10.842;2022-11-20T04:56:11;74.90;;;36.53;;
23290;SDS011;11814;44.686;10.842;2022-11-20T04:58:38;73.88;;;36.33;;
23290;SDS011;11814;44.686;10.842;2022-11-20T05:01:05;75.93;;;37.20;;
23290;SDS011;11814;44.686;10.842;2022-11-20T05:03:32;76.38;;;38.45;;
23290;SDS011;11814;44.686;10.842;2022-11-20T05:06:02;71.90;;;36.90;;
23290;SDS011;11814;44.686;10.842;2022-11-20T05:08:28;71.88;;;35.63;;
23290;SDS011;11814;44.686;10.842;2022-11-20T05:11:05;73.10;;;36.53;;
23290;SDS011;11814;44.686;10.842;2022-11-20T05:13:31;67.85;;;36.08;;
23290;SDS011;11814;44.686;10.842;2022-11-20T05:18:33;61.00;;;31.73;;
23290;SDS011;11814;44.686;10.842;2022-11-20T05:21:00;56.75;;;30.83;;
23290;SDS011;11814;44.686;10.842;2022-11-20T05:23:26;57.85;;;31.42;;
23290;SDS011;11814;44.686;10.842;2022-11-20T05:25:53;52.88;;;29.40;;
23290;SDS011;11814;44.686;10.842;2022-11-20T05:28:19;46.92;;;27.85;;
23290;SDS011;11814;44.686;10.842;2022-11-20T05:30:46;61.47;;;31.55;;
23290;SDS011;11814;44.686;10.842;2022-11-20T05:33:11;77.80;;;36.50;;
23290;SDS011;11814;44.686;10.842;2022-11-20T05:35:37;77.90;;;37.03;;
23290;SDS011;11814;44.686;10.842;2022-11-20T05:38:03;71.60;;;35.13;;
23290;SDS011;11814;44.686;10.842;2022-11-20T05:40:29;63.88;;;32.72;;
23290;SDS011;11814;44.686;10.842;2022-11-20T05:42:54;63.83;;;33.72;;
23290;SDS011;11814;44.686;10.842;2022-11-20T05:45:20;54.78;;;29.33;;
23290;SDS011;11814;44.686;10.842;2022-11-20T05:47:46;49.65;;;28.20;;
23290;SDS011;11814;44.686;10.842;2022-11-20T05:50:11;47.53;;;26.83;;
23290;SDS011;11814;44.686;10.842;2022-11-20T05:52:38;48.30;;;20.95;;
23290;SDS011;11814;44.686;10.842;2022-11-20T05:55:03;28.85;;;18.48;;
23290;SDS011;11814;44.686;10.842;2022-11-20T05:57:30;38.92;;;16.48;;
23290;SDS011;11814;44.686;10.842;2022-11-20T05:59:56;49.45;;;16.80;;
23290;SDS011;11814;44.686;10.842;2022-11-20T06:02:22;27.95;;;17.13;;
23290;SDS011;11814;44.686;10.842;2022-11-20T06:04:47;40.20;;;22.33;;
23290;SDS011;11814;44.686;10.842;2022-11-20T06:07:14;23.58;;;16.52;;
23290;SDS011;11814;44.686;10.842;2022-11-20T06:09:40;27.30;;;16.73;;
23290;SDS011;11814;44.686;10.842;2022-11-20T06:12:05;26.65;;;16.98;;
23290;SDS011;11814;44.686;10.842;2022-11-20T06:14:32;47.72;;;20.95;;
23290;SDS011;11814;44.686;10.842;2022-11-20T06:16:57;96.72;;;19.50;;
23290;SDS011;11814;44.686;10.842;2022-11-20T06:19:23;75.18;;;20.05;;
23290;SDS011;11814;44.686;10.842;2022-11-20T06:21:49;27.48;;;17.20;;
23290;SDS011;11814;44.686;10.842;2022-11-20T06:24:15;47.90;;;21.58;;
23290;SDS011;11814;44.686;10.842;2022-11-20T06:26:41;47.25;;;24.33;;
23290;SDS011;11814;44.686;10.842;2022-11-20T06:29:07;46.72;;;24.98;;
23290;SDS011;11814;44.686;10.842;2022-11-20T06:31:33;40.83;;;24.30;;
23290;SDS011;11814;44.686;10.842;2022-11-20T06:34:02;50.20;;;27.60;;
23290;SDS011;11814;44.686;10.842;2022-11-20T06:36:31;41.90;;;24.58;;
23290;SDS011;11814;44.686;10.842;2022-11-20T06:38:58;55.38;;;29.48;;
23290;SDS011;11814;44.686;10.842;2022-11-20T06:41:25;40.08;;;22.95;;
23290;SDS011;11814;44.686;10.842;2022-11-20T06:43:51;35.67;;;22.33;;
23290;SDS011;11814;44.686;10.842;2022-11-20T06:46:17;32.97;;;20.40;;
23290;SDS011;11814;44.686;10.842;2022-11-20T06:48:45;42.35;;;24.42;;
23290;SDS011;11814;44.686;10.842;2022-11-20T06:51:11;30.35;;;19.45;;
23290;SDS011;11814;44.686;10.842;2022-11-20T06:53:37;46.38;;;25.45;;
23290;SDS011;11814;44.686;10.842;2022-11-20T06:56:03;47.30;;;26.45;;
23290;SDS011;11814;44.686;10.842;2022-11-20T06:58:31;43.53;;;25.15;;
23290;SDS011;11814;44.686;10.842;2022-11-20T07:00:58;40.85;;;24.17;;
23290;SDS011;11814;44.686;10.842;2022-11-20T07:03:29;30.65;;;20.65;;
23290;SDS011;11814;44.686;10.842;2022-11-20T07:05:55;45.92;;;25.95;;
23290;SDS011;11814;44.686;10.842;2022-11-20T07:08:22;69.03;;;26.27;;
23290;SDS011;11814;44.686;10.842;2022-11-20T07:10:48;37.17;;;22.23;;
23290;SDS011;11814;44.686;10.842;2022-11-20T07:13:14;43.85;;;23.30;;
23290;SDS011;11814;44.686;10.842;2022-11-20T07:15:40;32.80;;;19.42;;
23290;SDS011;11814;44.686;10.842;2022-11-20T07:18:06;26.77;;;17.83;;
23290;SDS011;11814;44.686;10.842;2022-11-20T07:20:31;26.52;;;16.50;;
23290;SDS011;11814;44.686;10.842;2022-11-20T07:22:57;36.92;;;18.25;;
23290;SDS011;11814;44.686;10.842;2022-11-20T07:25:24;42.25;;;19.63;;
23290;SDS011;11814;44.686;10.842;2022-11-20T07:27:51;74.57;;;21.02;;
23290;SDS011;11814;44.686;10.842;2022-11-20T07:30:16;44.35;;;21.77;;
23290;SDS011;11814;44.686;10.842;2022-11-20T07:32:45;59.88;;;22.35;;
23290;SDS011;11814;44.686;10.842;2022-11-20T07:35:12;37.55;;;21.88;;
23290;SDS011;11814;44.686;10.842;2022-11-20T07:37:38;38.85;;;22.48;;
23290;SDS011;11814;44.686;10.842;2022-11-20T07:40:03;40.63;;;22.70;;
23290;SDS011;11814;44.686;10.842;2022-11-20T07:42:29;58.75;;;25.48;;
23290;SDS011;11814;44.686;10.842;2022-11-20T07:44:55;183.73;;;57.08;;
23290;SDS011;11814;44.686;10.842;2022-11-20T07:47:21;237.68;;;70.28;;
23290;SDS011;11814;44.686;10.842;2022-11-20T07:49:46;213.00;;;57.10;;
23290;SDS011;11814;44.686;10.842;2022-11-20T07:52:12;155.05;;;50.10;;
23290;SDS011;11814;44.686;10.842;2022-11-20T07:54:38;164.45;;;52.20;;
23290;SDS011;11814;44.686;10.842;2022-11-20T07:57:03;203.38;;;62.65;;
23290;SDS011;11814;44.686;10.842;2022-11-20T07:59:29;173.00;;;61.22;;
23290;SDS011;11814;44.686;10.842;2022-11-20T08:01:55;164.27;;;60.67;;
23290;SDS011;11814;44.686;10.842;2022-11-20T08:04:20;95.22;;;44.67;;
23290;SDS011;11814;44.686;10.842;2022-11-20T08:06:46;74.60;;;36.97;;
23290;SDS011;11814;44.686;10.842;2022-11-20T08:09:12;68.07;;;35.65;;
23290;SDS011;11814;44.686;10.842;2022-11-20T08:11:38;74.88;;;35.80;;
23290;SDS011;11814;44.686;10.842;2022-11-20T08:14:22;63.72;;;33.55;;
23290;SDS011;11814;44.686;10.842;2022-11-20T08:16:49;61.92;;;33.13;;
23290;SDS011;11814;44.686;10.842;2022-11-20T08:19:15;65.38;;;34.05;;
23290;SDS011;11814;44.686;10.842;2022-11-20T08:21:42;59.10;;;34.00;;
23290;SDS011;11814;44.686;10.842;2022-11-20T08:24:08;63.28;;;33.05;;
23290;SDS011;11814;44.686;10.842;2022-11-20T08:26:35;56.17;;;32.17;;
23290;SDS011;11814;44.686;10.842;2022-11-20T08:29:02;58.20;;;32.40;;
23290;SDS011;11814;44.686;10.842;2022-11-20T08:31:29;59.00;;;32.55;;
23290;SDS011;11814;44.686;10.842;2022-11-20T08:33:55;53.80;;;29.92;;
23290;SDS011;11814;44.686;10.842;2022-11-20T08:36:21;49.78;;;29.40;;
23290;SDS011;11814;44.686;10.842;2022-11-20T08:38:51;54.88;;;29.83;;
23290;SDS011;11814;44.686;10.842;2022-11-20T08:41:18;53.00;;;29.77;;
23290;SDS011;11814;44.686;10.842;2022-11-20T08:43:56;55.45;;;30.40;;
23290;SDS011;11814;44.686;10.842;2022-11-20T08:46:27;55.35;;;31.30;;
23290;SDS011;11814;44.686;10.842;2022-11-20T08:48:58;58.92;;;31.88;;
23290;SDS011;11814;44.686;10.842;2022-11-20T08:51:24;56.25;;;31.05;;
23290;SDS011;11814;44.686;10.842;2022-11-20T08:53:49;57.33;;;32.75;;
23290;SDS011;11814;44.686;10.842;2022-11-20T08:56:15;58.17;;;33.63;;
23290;SDS011;11814;44.686;10.842;2022-11-20T08:58:42;58.83;;;33.58;;
23290;SDS011;11814;44.686;10.842;2022-11-20T09:01:08;58.35;;;32.92;;
23290;SDS011;11814;44.686;10.842;2022-11-20T09:03:33;53.75;;;32.83;;
23290;SDS011;11814;44.686;10.842;2022-11-20T09:06:00;55.28;;;32.35;;
23290;SDS011;11814;44.686;10.842;2022-11-20T09:08:27;58.90;;;33.28;;
23290;SDS011;11814;44.686;10.842;2022-11-20T09:10:53;56.47;;;33.55;;
23290;SDS011;11814;44.686;10.842;2022-11-20T09:13:20;53.83;;;32.45;;
23290;SDS011;11814;44.686;10.842;2022-11-20T09:15:47;56.92;;;31.60;;
23290;SDS011;11814;44.686;10.842;2022-11-20T09:18:17;57.72;;;33.13;;
23290;SDS011;11814;44.686;10.842;2022-11-20T09:20:43;56.17;;;32.78;;
23290;SDS011;11814;44.686;10.842;2022-11-20T09:23:09;59.60;;;34.35;;
23290;SDS011;11814;44.686;10.842;2022-11-20T09:25:34;58.45;;;33.97;;
23290;SDS011;11814;44.686;10.842;2022-11-20T09:28:00;60.38;;;33.90;;
23290;SDS011;11814;44.686;10.842;2022-11-20T09:30:26;59.95;;;34.35;;
23290;SDS011;11814;44.686;10.842;2022-11-20T09:32:52;61.80;;;33.70;;
23290;SDS011;11814;44.686;10.842;2022-11-20T09:35:18;58.08;;;33.53;;
23290;SDS011;11814;44.686;10.842;2022-11-20T09:37:44;60.63;;;35.00;;
23290;SDS011;11814;44.686;10.842;2022-11-20T09:40:18;58.20;;;34.22;;
23290;SDS011;11814;44.686;10.842;2022-11-20T09:54:16;63.95;;;35.70;;
23290;SDS011;11814;44.686;10.842;2022-11-20T09:57:25;61.63;;;36.00;;
23290;SDS011;11814;44.686;10.842;2022-11-20T09:59:49;61.33;;;35.15;;
23290;SDS011;11814;44.686;10.842;2022-11-20T10:05:03;64.97;;;35.50;;
23290;SDS011;11814;44.686;10.842;2022-11-20T10:13:48;71.35;;;37.97;;
23290;SDS011;11814;44.686;10.842;2022-11-20T10:16:22;62.95;;;36.45;;
23290;SDS011;11814;44.686;10.842;2022-11-20T10:19:23;64.57;;;35.40;;
23290;SDS011;11814;44.686;10.842;2022-11-20T10:27:43;64.20;;;34.47;;
23290;SDS011;11814;44.686;10.842;2022-11-20T10:30:20;64.88;;;36.75;;
23290;SDS011;11814;44.686;10.842;2022-11-20T10:32:50;62.75;;;35.22;;
23290;SDS011;11814;44.686;10.842;2022-11-20T10:35:42;64.32;;;35.13;;
23290;SDS011;11814;44.686;10.842;2022-11-20T10:38:23;66.72;;;35.50;;
23290;SDS011;11814;44.686;10.842;2022-11-20T10:41:02;67.90;;;36.28;;
23290;SDS011;11814;44.686;10.842;2022-11-20T10:43:48;61.42;;;34.50;;
23290;SDS011;11814;44.686;10.842;2022-11-20T10:46:22;59.55;;;34.22;;
23290;SDS011;11814;44.686;10.842;2022-11-20T10:48:48;60.17;;;34.47;;
23290;SDS011;11814;44.686;10.842;2022-11-20T10:54:22;61.58;;;34.72;;
23290;SDS011;11814;44.686;10.842;2022-11-20T10:56:56;59.53;;;35.50;;
23290;SDS011;11814;44.686;10.842;2022-11-20T11:04:58;57.47;;;33.60;;
23290;SDS011;11814;44.686;10.842;2022-11-20T11:07:35;64.25;;;36.03;;
23290;SDS011;11814;44.686;10.842;2022-11-20T11:10:05;59.00;;;34.10;;
23290;SDS011;11814;44.686;10.842;2022-11-20T11:12:45;59.88;;;33.13;;
23290;SDS011;11814;44.686;10.842;2022-11-20T11:15:24;60.03;;;33.22;;
23290;SDS011;11814;44.686;10.842;2022-11-20T11:17:50;58.13;;;32.97;;
23290;SDS011;11814;44.686;10.842;2022-11-20T11:22:50;59.25;;;33.50;;
23290;SDS011;11814;44.686;10.842;2022-11-20T11:25:25;62.78;;;35.92;;
23290;SDS011;11814;44.686;10.842;2022-11-20T11:27:56;64.65;;;35.03;;
23290;SDS011;11814;44.686;10.842;2022-11-20T11:30:24;59.08;;;35.30;;
23290;SDS011;11814;44.686;10.842;2022-11-20T11:33:02;60.05;;;34.72;;
23290;SDS011;11814;44.686;10.842;2022-11-20T11:35:32;58.22;;;33.63;;
23290;SDS011;11814;44.686;10.842;2022-11-20T11:38:05;55.97;;;33.35;;
23290;SDS011;11814;44.686;10.842;2022-11-20T11:40:37;57.78;;;33.08;;
23290;SDS011;11814;44.686;10.842;2022-11-20T11:43:05;59.42;;;34.17;;
23290;SDS011;11814;44.686;10.842;2022-11-20T11:46:01;59.13;;;32.40;;
23290;SDS011;11814;44.686;10.842;2022-11-20T11:48:27;55.33;;;31.65;;
23290;SDS011;11814;44.686;10.842;2022-11-20T11:50:53;50.78;;;31.33;;
23290;SDS011;11814;44.686;10.842;2022-11-20T11:53:22;52.22;;;31.85;;
23290;SDS011;11814;44.686;10.842;2022-11-20T11:56:09;59.47;;;33.30;;
23290;SDS011;11814;44.686;10.842;2022-11-20T11:58:45;53.80;;;32.40;;
23290;SDS011;11814;44.686;10.842;2022-11-20T12:01:48;55.13;;;32.33;;
23290;SDS011;11814;44.686;10.842;2022-11-20T12:04:33;57.78;;;33.38;;
23290;SDS011;11814;44.686;10.842;2022-11-20T12:09:49;56.83;;;32.50;;
23290;SDS011;11814;44.686;10.842;2022-11-20T12:12:24;53.47;;;32.53;;
23290;SDS011;11814;44.686;10.842;2022-11-20T12:14:57;55.15;;;32.70;;
23290;SDS011;11814;44.686;10.842;2022-11-20T12:17:23;57.53;;;32.83;;
23290;SDS011;11814;44.686;10.842;2022-11-20T12:19:49;56.20;;;32.55;;
23290;SDS011;11814;44.686;10.842;2022-11-20T12:30:08;59.20;;;32.08;;
23290;SDS011;11814;44.686;10.842;2022-11-20T12:53:25;51.85;;;30.80;;
23290;SDS011;11814;44.686;10.842;2022-11-20T12:59:02;54.95;;;31.73;;
23290;SDS011;11814;44.686;10.842;2022-11-20T13:01:46;61.13;;;33.92;;
23290;SDS011;11814;44.686;10.842;2022-11-20T13:07:14;56.08;;;32.88;;
23290;SDS011;11814;44.686;10.842;2022-11-20T13:09:46;53.92;;;29.75;;
23290;SDS011;11814;44.686;10.842;2022-11-20T13:15:08;53.60;;;29.80;;
23290;SDS011;11814;44.686;10.842;2022-11-20T13:20:17;50.85;;;29.77;;
23290;SDS011;11814;44.686;10.842;2022-11-20T13:27:55;52.17;;;30.65;;
23290;SDS011;11814;44.686;10.842;2022-11-20T13:30:26;53.45;;;30.08;;
23290;SDS011;11814;44.686;10.842;2022-11-20T13:35:29;50.22;;;28.80;;
23290;SDS011;11814;44.686;10.842;2022-11-20T13:37:59;50.00;;;29.33;;
23290;SDS011;11814;44.686;10.842;2022-11-20T13:40:33;53.65;;;29.88;;
23290;SDS011;11814;44.686;10.842;2022-11-20T13:45:55;51.95;;;28.98;;
23290;SDS011;11814;44.686;10.842;2022-11-20T13:48:26;54.33;;;29.75;;
23290;SDS011;11814;44.686;10.842;2022-11-20T14:00:21;50.63;;;28.98;;
23290;SDS011;11814;44.686;10.842;2022-11-20T14:02:57;50.97;;;28.17;;
23290;SDS011;11814;44.686;10.842;2022-11-20T14:05:23;51.40;;;29.23;;
23290;SDS011;11814;44.686;10.842;2022-11-20T14:07:50;51.17;;;28.77;;
23290;SDS011;11814;44.686;10.842;2022-11-20T14:10:21;48.03;;;27.70;;
23290;SDS011;11814;44.686;10.842;2022-11-20T14:12:52;54.15;;;30.15;;
23290;SDS011;11814;44.686;10.842;2022-11-20T14:17:53;51.53;;;29.33;;
23290;SDS011;11814;44.686;10.842;2022-11-20T14:20:19;49.95;;;29.40;;
23290;SDS011;11814;44.686;10.842;2022-11-20T14:22:49;55.10;;;29.92;;
23290;SDS011;11814;44.686;10.842;2022-11-20T14:27:42;48.50;;;29.40;;
23290;SDS011;11814;44.686;10.842;2022-11-20T14:30:13;52.28;;;28.90;;
23290;SDS011;11814;44.686;10.842;2022-11-20T14:32:49;56.08;;;30.17;;
23290;SDS011;11814;44.686;10.842;2022-11-20T14:35:28;53.08;;;28.05;;
23290;SDS011;11814;44.686;10.842;2022-11-20T14:37:55;56.85;;;30.35;;
23290;SDS011;11814;44.686;10.842;2022-11-20T14:40:23;51.20;;;29.85;;
23290;SDS011;11814;44.686;10.842;2022-11-20T14:42:54;47.42;;;27.92;;
23290;SDS011;11814;44.686;10.842;2022-11-20T14:45:20;53.25;;;29.92;;
23290;SDS011;11814;44.686;10.842;2022-11-20T14:47:47;51.03;;;30.63;;
23290;SDS011;11814;44.686;10.842;2022-11-20T14:50:16;56.92;;;31.50;;
23290;SDS011;11814;44.686;10.842;2022-11-20T14:52:52;54.35;;;30.92;;
23290;SDS011;11814;44.686;10.842;2022-11-20T14:55:26;56.88;;;29.40;;
23290;SDS011;11814;44.686;10.842;2022-11-20T14:58:01;52.47;;;29.33;;
23290;SDS011;11814;44.686;10.842;2022-11-20T15:00:29;56.75;;;30.52;;
23290;SDS011;11814;44.686;10.842;2022-11-20T15:02:56;50.17;;;30.05;;
23290;SDS011;11814;44.686;10.842;2022-11-20T15:05:36;52.90;;;29.85;;
23290;SDS011;11814;44.686;10.842;2022-11-20T15:08:12;56.22;;;30.50;;
23290;SDS011;11814;44.686;10.842;2022-11-20T15:10:39;56.38;;;32.40;;
23290;SDS011;11814;44.686;10.842;2022-11-20T15:13:11;56.65;;;30.83;;
23290;SDS011;11814;44.686;10.842;2022-11-20T15:18:14;52.53;;;29.00;;
23290;SDS011;11814;44.686;10.842;2022-11-20T15:20:43;56.45;;;31.65;;
23290;SDS011;11814;44.686;10.842;2022-11-20T15:23:13;60.75;;;32.58;;
23290;SDS011;11814;44.686;10.842;2022-11-20T15:25:40;60.72;;;31.33;;
23290;SDS011;11814;44.686;10.842;2022-11-20T15:30:45;64.55;;;32.92;;
23290;SDS011;11814;44.686;10.842;2022-11-20T15:33:11;62.17;;;32.92;;
23290;SDS011;11814;44.686;10.842;2022-11-20T15:35:38;61.78;;;33.85;;
23290;SDS011;11814;44.686;10.842;2022-11-20T15:38:03;55.65;;;32.38;;
23290;SDS011;11814;44.686;10.842;2022-11-20T15:40:29;61.28;;;33.47;;
23290;SDS011;11814;44.686;10.842;2022-11-20T15:42:55;63.80;;;33.95;;
23290;SDS011;11814;44.686;10.842;2022-11-20T15:45:53;64.90;;;35.78;;
23290;SDS011;11814;44.686;10.842;2022-11-20T15:48:20;61.85;;;33.40;;
23290;SDS011;11814;44.686;10.842;2022-11-20T15:50:52;62.65;;;33.13;;
23290;SDS011;11814;44.686;10.842;2022-11-20T15:53:34;74.82;;;35.67;;
23290;SDS011;11814;44.686;10.842;2022-11-20T15:56:00;68.18;;;34.22;;
23290;SDS011;11814;44.686;10.842;2022-11-20T15:58:26;61.33;;;34.45;;
23290;SDS011;11814;44.686;10.842;2022-11-20T16:00:52;65.63;;;34.00;;
23290;SDS011;11814;44.686;10.842;2022-11-20T16:03:19;59.25;;;33.17;;
23290;SDS011;11814;44.686;10.842;2022-11-20T16:05:45;65.38;;;36.78;;
23290;SDS011;11814;44.686;10.842;2022-11-20T16:08:11;64.20;;;35.47;;
23290;SDS011;11814;44.686;10.842;2022-11-20T16:10:36;59.92;;;33.80;;
23290;SDS011;11814;44.686;10.842;2022-11-20T16:13:03;64.93;;;34.58;;
23290;SDS011;11814;44.686;10.842;2022-11-20T16:15:51;63.08;;;34.88;;
23290;SDS011;11814;44.686;10.842;2022-11-20T16:18:21;66.40;;;37.63;;
23290;SDS011;11814;44.686;10.842;2022-11-20T16:20:51;65.07;;;35.83;;
23290;SDS011;11814;44.686;10.842;2022-11-20T16:23:18;70.85;;;36.45;;